createdAt,value
2017-11-26T00:03:47.190Z,95.49
2017-11-26T00:06:13.423Z,95.44
2017-11-26T00:08:39.773Z,95.53
2017-11-26T00:11:06.022Z,95.63
2017-11-26T00:13:32.244Z,95.53
2017-11-26T00:15:58.505Z,95.38
2017-11-26T00:18:24.742Z,95.72
2017-11-26T00:20:50.983Z,95.89
2017-11-26T00:23:17.256Z,95.88
2017-11-26T00:25:44.456Z,96.06
2017-11-26T00:28:10.801Z,95.93
2017-11-26T00:30:37.072Z,96.01
2017-11-26T00:33:03.324Z,96.05
2017-11-26T00:35:29.744Z,96.01
2017-11-26T00:37:56.045Z,96.09
2017-11-26T00:40:22.269Z,96.07
2017-11-26T00:42:48.488Z,95.92
2017-11-26T00:45:14.745Z,95.49
2017-11-26T00:47:41.082Z,95.32
2017-11-26T00:50:07.336Z,95.62
2017-11-26T00:52:33.643Z,95.69
2017-11-26T00:54:59.878Z,95.79
2017-11-26T00:57:26.124Z,95.71
2017-11-26T00:59:52.386Z,95.55
2017-11-26T01:02:18.617Z,95.74
2017-11-26T01:04:44.852Z,96.01
2017-11-26T01:07:11.113Z,95.79
2017-11-26T01:09:37.344Z,95.94
2017-11-26T01:12:03.571Z,96.16
2017-11-26T01:14:29.812Z,96.33
2017-11-26T01:16:56.041Z,96.45
2017-11-26T01:19:22.259Z,96.37
2017-11-26T01:21:48.686Z,96.20
2017-11-26T01:24:14.932Z,96.23
2017-11-26T01:26:41.142Z,96.28
2017-11-26T01:29:07.394Z,96.17
2017-11-26T01:31:33.638Z,96.12
2017-11-26T01:33:59.889Z,96.06
2017-11-26T01:36:26.182Z,95.91
2017-11-26T01:38:52.404Z,96.00
2017-11-26T01:41:18.644Z,96.15
2017-11-26T01:43:44.927Z,95.85
2017-11-26T01:46:11.168Z,95.54
2017-11-26T01:48:37.408Z,95.52
2017-11-26T01:51:03.681Z,95.14
2017-11-26T01:53:29.919Z,94.96
2017-11-26T01:55:56.150Z,94.95
2017-11-26T01:58:22.494Z,95.08
2017-11-26T02:00:48.749Z,94.67
2017-11-26T02:03:15.078Z,94.45
2017-11-26T02:05:41.337Z,94.38
2017-11-26T02:08:07.632Z,94.24
2017-11-26T02:10:33.864Z,93.99
2017-11-26T02:13:00.153Z,93.92
2017-11-26T02:15:26.512Z,93.96
2017-11-26T02:17:52.744Z,93.99
2017-11-26T02:20:19.028Z,93.78
2017-11-26T02:22:45.280Z,93.58
2017-11-26T02:25:11.643Z,93.60
2017-11-26T02:27:38.293Z,93.94
2017-11-26T02:30:04.530Z,93.75
2017-11-26T02:32:30.778Z,93.80
2017-11-26T02:34:57.051Z,93.72
2017-11-26T02:37:23.297Z,93.78
2017-11-26T02:39:49.558Z,93.94
2017-11-26T02:42:15.816Z,94.08
2017-11-26T02:44:42.058Z,93.97
2017-11-26T02:47:08.431Z,93.77
2017-11-26T02:49:34.718Z,94.03
2017-11-26T02:52:01.069Z,94.18
2017-11-26T02:54:27.300Z,94.21
2017-11-26T02:56:53.559Z,94.45
2017-11-26T02:59:19.838Z,94.42
2017-11-26T03:01:46.077Z,94.22
2017-11-26T03:04:12.351Z,94.30
2017-11-26T03:06:38.583Z,94.42
2017-11-26T03:09:04.824Z,94.49
2017-11-26T03:11:31.105Z,94.37
2017-11-26T03:13:57.348Z,94.36
2017-11-26T03:16:23.572Z,94.22
2017-11-26T03:18:49.874Z,94.16
2017-11-26T03:21:16.126Z,94.32
2017-11-26T03:23:42.375Z,94.31
2017-11-26T03:26:08.635Z,93.96
2017-11-26T03:28:34.887Z,93.93
2017-11-26T03:31:01.118Z,94.50
2017-11-26T03:33:27.423Z,95.19
2017-11-26T03:35:53.652Z,95.43
2017-11-26T03:38:19.904Z,95.29
2017-11-26T03:40:46.254Z,95.52
2017-11-26T03:43:12.478Z,94.77
2017-11-26T03:45:38.703Z,94.45
2017-11-26T03:48:04.962Z,94.77
2017-11-26T03:50:31.191Z,94.43
2017-11-26T03:52:57.440Z,94.48
2017-11-26T03:55:23.861Z,94.80
2017-11-26T03:57:50.097Z,95.41
2017-11-26T04:00:16.323Z,94.95
2017-11-26T04:02:42.586Z,94.80
2017-11-26T04:05:08.816Z,94.47
2017-11-26T04:07:35.054Z,94.95
2017-11-26T04:10:01.335Z,95.32
2017-11-26T04:12:27.593Z,95.24
2017-11-26T04:14:53.808Z,95.40
2017-11-26T04:17:20.089Z,95.20
2017-11-26T04:19:46.346Z,94.98
2017-11-26T04:22:12.573Z,95.13
2017-11-26T04:24:39.017Z,95.46
2017-11-26T04:27:05.254Z,95.38
2017-11-26T04:29:31.498Z,95.45
2017-11-26T04:31:57.770Z,95.25
2017-11-26T04:34:23.995Z,94.98
2017-11-26T04:36:50.220Z,96.01
2017-11-26T04:39:16.492Z,95.47
2017-11-26T04:41:42.729Z,95.90
2017-11-26T04:44:08.951Z,95.88
2017-11-26T04:46:35.229Z,96.45
2017-11-26T04:49:01.463Z,95.91
2017-11-26T04:51:27.701Z,95.63
2017-11-26T04:53:53.978Z,96.30
2017-11-26T04:56:20.212Z,96.17
2017-11-26T04:58:46.429Z,95.74
2017-11-26T05:01:12.691Z,96.27
2017-11-26T05:03:38.919Z,96.11
2017-11-26T05:06:05.161Z,95.82
2017-11-26T05:08:31.458Z,95.79
2017-11-26T05:10:57.676Z,95.56
2017-11-26T05:13:23.917Z,95.79
2017-11-26T05:15:50.198Z,95.37
2017-11-26T05:18:16.425Z,95.29
2017-11-26T05:20:42.668Z,95.85
2017-11-26T05:23:08.931Z,95.62
2017-11-26T05:25:35.161Z,95.23
2017-11-26T05:28:01.407Z,95.12
2017-11-26T05:30:27.659Z,94.90
2017-11-26T05:32:53.880Z,95.17
2017-11-26T05:35:20.104Z,95.47
2017-11-26T05:37:46.379Z,95.83
2017-11-26T05:40:12.606Z,95.96
2017-11-26T05:42:38.849Z,96.28
2017-11-26T05:45:05.127Z,97.22
2017-11-26T05:47:31.372Z,97.89
2017-11-26T05:49:57.620Z,97.17
2017-11-26T05:52:23.877Z,97.06
2017-11-26T05:54:50.103Z,97.22
2017-11-26T05:57:16.328Z,96.87
2017-11-26T05:59:42.625Z,97.04
2017-11-26T06:02:08.868Z,97.44
2017-11-26T06:04:35.100Z,96.99
2017-11-26T06:07:01.360Z,96.84
2017-11-26T06:09:27.589Z,96.17
2017-11-26T06:11:53.815Z,96.00
2017-11-26T06:14:20.073Z,94.97
2017-11-26T06:16:46.302Z,95.32
2017-11-26T06:19:12.529Z,95.24
2017-11-26T06:21:38.804Z,94.90
2017-11-26T06:24:05.062Z,94.14
2017-11-26T06:26:31.285Z,94.09
2017-11-26T06:28:57.551Z,94.32
2017-11-26T06:31:23.784Z,93.86
2017-11-26T06:33:50.152Z,93.09
2017-11-26T06:36:16.428Z,93.05
2017-11-26T06:38:42.657Z,93.30
2017-11-26T06:41:08.929Z,92.59
2017-11-26T06:43:35.212Z,92.49
2017-11-26T06:46:01.449Z,92.69
2017-11-26T06:48:27.689Z,92.06
2017-11-26T06:50:53.968Z,91.76
2017-11-26T06:53:20.202Z,91.56
2017-11-26T06:55:46.445Z,91.24
2017-11-26T06:58:12.735Z,91.15
2017-11-26T07:00:38.957Z,91.64
2017-11-26T07:03:05.175Z,91.44
2017-11-26T07:05:31.445Z,91.71
2017-11-26T07:07:57.695Z,92.20
2017-11-26T07:10:23.916Z,92.89
2017-11-26T07:12:50.177Z,92.50
2017-11-26T07:15:16.422Z,92.22
2017-11-26T07:17:42.675Z,92.10
2017-11-26T07:20:08.932Z,92.79
2017-11-26T07:22:35.167Z,93.63
2017-11-26T07:25:01.406Z,92.81
2017-11-26T07:27:27.661Z,92.69
2017-11-26T07:29:53.893Z,92.22
2017-11-26T07:32:20.108Z,92.19
2017-11-26T07:34:46.468Z,91.10
2017-11-26T07:37:12.715Z,91.51
2017-11-26T07:39:38.959Z,90.10
2017-11-26T07:42:05.242Z,90.61
2017-11-26T07:44:31.470Z,89.66
2017-11-26T07:46:57.804Z,89.74
2017-11-26T07:49:24.080Z,88.56
2017-11-26T07:51:50.308Z,88.89
2017-11-26T07:54:16.546Z,87.84
2017-11-26T07:56:42.814Z,87.23
2017-11-26T07:59:09.048Z,86.72
2017-11-26T08:01:35.286Z,85.87
2017-11-26T08:04:01.552Z,85.48
2017-11-26T08:06:27.780Z,85.46
2017-11-26T08:08:54.026Z,85.25
2017-11-26T08:11:20.297Z,84.69
2017-11-26T08:13:46.512Z,84.15
2017-11-26T08:16:12.750Z,85.37
2017-11-26T08:18:39.012Z,85.28
2017-11-26T08:21:05.300Z,86.20
2017-11-26T08:23:31.520Z,88.27
2017-11-26T08:25:57.899Z,96.36
2017-11-26T08:28:24.129Z,90.47
2017-11-26T08:30:50.369Z,93.25
2017-11-26T08:33:16.633Z,88.11
2017-11-26T08:35:43.045Z,86.11
2017-11-26T08:38:09.272Z,85.83
2017-11-26T08:40:35.547Z,85.23
2017-11-26T08:43:01.791Z,85.87
2017-11-26T08:45:28.015Z,86.22
2017-11-26T08:47:54.301Z,85.85
2017-11-26T08:50:20.547Z,85.47
2017-11-26T08:52:46.779Z,85.33
2017-11-26T08:55:13.048Z,83.93
2017-11-26T08:57:39.301Z,85.31
2017-11-26T09:00:05.715Z,82.68
2017-11-26T09:02:31.994Z,82.88
2017-11-26T09:04:58.371Z,80.09
2017-11-26T09:07:24.642Z,79.84
2017-11-26T09:09:50.916Z,79.62
2017-11-26T09:12:17.166Z,79.56
2017-11-26T09:14:43.410Z,79.62
2017-11-26T09:17:09.693Z,78.18
2017-11-26T09:19:35.957Z,78.30
2017-11-26T09:22:02.189Z,78.27
2017-11-26T09:24:28.448Z,78.13
2017-11-26T09:26:54.685Z,78.45
2017-11-26T09:29:20.963Z,78.29
2017-11-26T09:31:47.275Z,79.01
2017-11-26T09:34:13.531Z,80.52
2017-11-26T09:36:39.777Z,78.49
2017-11-26T09:39:06.052Z,76.54
2017-11-26T09:41:32.283Z,75.95
2017-11-26T09:43:58.484Z,74.00
2017-11-26T09:46:24.745Z,73.32
2017-11-26T09:48:50.983Z,73.42
2017-11-26T09:51:17.200Z,73.29
2017-11-26T09:53:43.465Z,73.18
2017-11-26T09:56:09.669Z,74.21
2017-11-26T09:58:35.887Z,72.40
2017-11-26T10:01:02.161Z,71.06
2017-11-26T10:03:28.405Z,71.16
2017-11-26T10:05:54.648Z,71.14
2017-11-26T10:08:20.906Z,73.93
2017-11-26T10:10:47.122Z,73.08
2017-11-26T10:13:13.334Z,72.53
2017-11-26T10:15:39.625Z,73.47
2017-11-26T10:18:05.852Z,73.07
2017-11-26T10:20:32.087Z,73.76
2017-11-26T10:22:58.364Z,74.43
2017-11-26T10:25:24.606Z,74.22
2017-11-26T10:27:50.829Z,75.42
2017-11-26T10:30:17.092Z,74.84
2017-11-26T10:32:43.326Z,74.80
2017-11-26T10:35:09.551Z,75.60
2017-11-26T10:37:35.838Z,76.03
2017-11-26T10:40:02.071Z,76.27
2017-11-26T10:42:28.304Z,76.16
2017-11-26T10:44:54.669Z,77.33
2017-11-26T10:47:20.926Z,76.55
2017-11-26T10:49:47.168Z,75.62
2017-11-26T10:52:13.451Z,75.66
2017-11-26T10:54:39.701Z,77.23
2017-11-26T10:57:05.935Z,76.79
2017-11-26T10:59:32.199Z,76.30
2017-11-26T11:01:58.412Z,76.21
2017-11-26T11:04:24.686Z,75.85
2017-11-26T11:06:51.000Z,75.64
2017-11-26T11:09:17.236Z,78.71
2017-11-26T11:11:43.469Z,78.49
2017-11-26T11:14:09.726Z,78.17
2017-11-26T11:16:35.935Z,78.06
2017-11-26T11:19:02.159Z,77.63
2017-11-26T11:21:28.428Z,76.81
2017-11-26T11:23:54.808Z,77.30
2017-11-26T11:26:21.052Z,77.72
2017-11-26T11:28:47.302Z,77.33
2017-11-26T11:31:13.529Z,77.50
2017-11-26T11:33:39.746Z,77.03
2017-11-26T11:36:06.016Z,76.95
2017-11-26T11:38:32.271Z,76.80
2017-11-26T11:40:58.492Z,76.59
2017-11-26T11:43:24.703Z,79.27
2017-11-26T11:45:50.980Z,78.38
2017-11-26T11:48:17.225Z,77.53
2017-11-26T11:50:43.553Z,77.80
2017-11-26T11:53:09.985Z,78.72
2017-11-26T11:55:36.210Z,78.54
2017-11-26T11:58:02.434Z,78.83
2017-11-26T12:00:28.721Z,78.69
2017-11-26T12:02:54.955Z,77.70
2017-11-26T12:05:21.340Z,77.69
2017-11-26T12:07:47.607Z,78.75
2017-11-26T12:10:13.824Z,80.13
2017-11-26T12:12:40.047Z,79.81
2017-11-26T12:15:06.324Z,80.03
2017-11-26T12:17:32.546Z,79.43
2017-11-26T12:19:58.912Z,78.55
2017-11-26T12:22:25.169Z,79.44
2017-11-26T12:24:51.404Z,79.83
2017-11-26T12:27:17.649Z,79.39
2017-11-26T12:29:43.919Z,79.80
2017-11-26T12:32:10.184Z,79.83
2017-11-26T12:34:36.397Z,80.40
2017-11-26T12:37:02.656Z,80.58
2017-11-26T12:39:28.934Z,80.52
2017-11-26T12:41:55.182Z,80.46
2017-11-26T12:44:21.453Z,80.53
2017-11-26T12:46:47.667Z,80.08
2017-11-26T12:49:13.905Z,79.86
2017-11-26T12:51:40.190Z,80.29
2017-11-26T12:54:06.527Z,80.33
2017-11-26T12:56:32.760Z,81.14
2017-11-26T12:58:59.042Z,81.78
2017-11-26T13:01:25.270Z,81.85
2017-11-26T13:03:51.511Z,82.30
2017-11-26T13:06:17.764Z,82.75
2017-11-26T13:08:44.001Z,82.05
2017-11-26T13:11:10.229Z,81.80
2017-11-26T13:13:36.491Z,83.72
2017-11-26T13:16:02.737Z,84.19
2017-11-26T13:18:29.007Z,84.19
2017-11-26T13:20:55.281Z,84.84
2017-11-26T13:23:21.530Z,85.10
2017-11-26T13:25:47.805Z,85.47
2017-11-26T13:28:14.099Z,85.56
2017-11-26T13:30:40.328Z,86.39
2017-11-26T13:33:06.591Z,86.64
2017-11-26T13:35:32.837Z,86.73
2017-11-26T13:37:59.070Z,85.17
2017-11-26T13:40:25.359Z,86.96
2017-11-26T13:42:51.565Z,87.28
2017-11-26T13:45:17.782Z,86.88
2017-11-26T13:47:44.050Z,87.00
2017-11-26T13:50:10.313Z,86.45
2017-11-26T13:52:36.569Z,86.63
2017-11-26T13:55:03.046Z,86.65
2017-11-26T13:57:29.415Z,87.11
2017-11-26T13:59:55.647Z,87.23
2017-11-26T14:02:21.909Z,87.36
2017-11-26T14:04:48.132Z,87.49
2017-11-26T14:07:14.365Z,87.22
2017-11-26T14:09:40.602Z,86.98
2017-11-26T14:12:06.831Z,88.74
2017-11-26T14:14:33.067Z,88.83
2017-11-26T14:16:59.471Z,88.83
2017-11-26T14:19:25.775Z,88.56
2017-11-26T14:21:52.009Z,88.66
2017-11-26T14:24:18.279Z,86.60
2017-11-26T14:26:44.642Z,86.78
2017-11-26T14:29:10.890Z,86.34
2017-11-26T14:31:37.154Z,88.09
2017-11-26T14:34:03.440Z,89.72
2017-11-26T14:36:29.655Z,89.95
2017-11-26T14:38:55.901Z,90.26
2017-11-26T14:41:22.153Z,90.13
2017-11-26T14:43:48.388Z,90.29
2017-11-26T14:46:14.636Z,90.28
2017-11-26T14:48:40.870Z,90.31
2017-11-26T14:51:07.106Z,90.52
2017-11-26T14:53:33.384Z,90.56
2017-11-26T14:55:59.668Z,90.61
2017-11-26T14:58:25.895Z,90.58
2017-11-26T15:00:52.625Z,90.76
2017-11-26T15:03:18.870Z,91.83
2017-11-26T15:05:45.105Z,92.15
2017-11-26T15:08:11.522Z,92.29
2017-11-26T15:10:37.784Z,92.02
2017-11-26T15:13:04.009Z,91.91
2017-11-26T15:15:30.307Z,92.06
2017-11-26T15:17:56.528Z,91.45
2017-11-26T15:20:22.741Z,90.15
2017-11-26T15:22:48.993Z,90.55
2017-11-26T15:25:15.226Z,90.33
2017-11-26T15:27:41.464Z,91.07
2017-11-26T15:30:07.751Z,91.94
2017-11-26T15:32:33.978Z,93.48
2017-11-26T15:35:00.207Z,92.75
2017-11-26T15:37:26.468Z,91.74
2017-11-26T15:39:52.695Z,92.79
2017-11-26T15:42:18.924Z,90.68
2017-11-26T15:44:45.185Z,91.09
2017-11-26T15:47:11.429Z,91.65
2017-11-26T15:49:37.643Z,90.96
2017-11-26T15:52:03.930Z,90.87
2017-11-26T15:54:30.160Z,91.62
2017-11-26T15:56:56.396Z,92.09
2017-11-26T15:59:22.679Z,92.78
2017-11-26T16:01:48.994Z,93.15
2017-11-26T16:04:15.228Z,93.02
2017-11-26T16:06:41.508Z,93.28
2017-11-26T16:09:07.753Z,93.28
2017-11-26T16:11:33.996Z,93.23
2017-11-26T16:14:00.258Z,93.68
2017-11-26T16:16:26.490Z,93.62
2017-11-26T16:18:52.724Z,94.23
2017-11-26T16:21:19.008Z,94.67
2017-11-26T16:23:45.263Z,94.88
2017-11-26T16:26:11.500Z,94.90
2017-11-26T16:28:37.768Z,95.20
2017-11-26T16:31:04.037Z,94.89
2017-11-26T16:33:30.300Z,94.78
2017-11-26T16:35:56.563Z,95.29
2017-11-26T16:38:22.822Z,95.38
2017-11-26T16:40:49.262Z,95.35
2017-11-26T16:43:15.529Z,95.53
2017-11-26T16:45:41.774Z,95.22
2017-11-26T16:48:07.996Z,95.85
2017-11-26T16:50:34.280Z,96.51
2017-11-26T16:53:00.540Z,97.11
2017-11-26T16:55:26.785Z,97.22
2017-11-26T16:57:53.044Z,96.96
2017-11-26T17:00:19.275Z,96.94
2017-11-26T17:02:45.515Z,96.85
2017-11-26T17:05:11.825Z,96.98
2017-11-26T17:07:38.072Z,97.18
2017-11-26T17:10:04.315Z,97.23
2017-11-26T17:12:30.608Z,96.96
2017-11-26T17:14:56.862Z,96.95
2017-11-26T17:17:23.133Z,96.74
2017-11-26T17:19:49.401Z,96.60
2017-11-26T17:22:15.630Z,97.11
2017-11-26T17:24:41.856Z,97.35
2017-11-26T17:27:08.177Z,97.12
2017-11-26T17:29:34.424Z,96.75
2017-11-26T17:32:00.657Z,96.36
2017-11-26T17:34:26.919Z,95.90
2017-11-26T17:36:53.148Z,95.53
2017-11-26T17:39:19.375Z,95.36
2017-11-26T17:41:45.652Z,94.82
2017-11-26T17:44:11.889Z,94.21
2017-11-26T17:46:38.140Z,93.77
2017-11-26T17:49:04.414Z,93.29
2017-11-26T17:51:30.662Z,93.53
2017-11-26T17:53:56.898Z,93.79
2017-11-26T17:56:23.775Z,93.08
2017-11-26T17:58:50.008Z,93.35
2017-11-26T18:01:16.250Z,94.32
2017-11-26T18:03:42.515Z,94.23
2017-11-26T18:06:08.765Z,93.43
2017-11-26T18:08:35.008Z,94.10
2017-11-26T18:11:01.290Z,94.62
2017-11-26T18:13:27.521Z,94.89
2017-11-26T18:15:53.751Z,94.59
2017-11-26T18:18:20.023Z,94.40
2017-11-26T18:20:46.324Z,93.87
2017-11-26T18:23:12.614Z,93.87
2017-11-26T18:25:38.899Z,93.01
2017-11-26T18:28:05.154Z,92.86
2017-11-26T18:30:31.407Z,94.83
2017-11-26T18:32:57.685Z,94.65
2017-11-26T18:35:23.935Z,96.42
2017-11-26T18:37:50.179Z,93.94
2017-11-26T18:40:16.516Z,94.78
2017-11-26T18:42:42.757Z,94.94
2017-11-26T18:45:09.011Z,93.93
2017-11-26T18:47:35.344Z,93.46
2017-11-26T18:50:01.600Z,93.02
2017-11-26T18:52:27.866Z,92.85
2017-11-26T18:54:54.144Z,92.78
2017-11-26T18:57:20.378Z,92.39
2017-11-26T18:59:46.622Z,91.35
2017-11-26T19:02:12.889Z,91.70
2017-11-26T19:04:39.145Z,91.61
2017-11-26T19:07:05.439Z,92.11
2017-11-26T19:09:31.714Z,91.56
2017-11-26T19:11:57.948Z,92.29
2017-11-26T19:14:24.196Z,92.00
2017-11-26T19:16:50.472Z,91.67
2017-11-26T19:19:16.842Z,91.68
2017-11-26T19:21:43.144Z,91.83
2017-11-26T19:24:09.455Z,92.01
2017-11-26T19:26:35.714Z,91.98
2017-11-26T19:29:01.966Z,92.35
2017-11-26T19:31:28.241Z,92.35
2017-11-26T19:33:54.477Z,92.61
2017-11-26T19:36:20.845Z,92.13
2017-11-26T19:38:47.139Z,92.70
2017-11-26T19:41:13.424Z,91.21
2017-11-26T19:43:39.690Z,93.33
2017-11-26T19:46:05.930Z,93.02
2017-11-26T19:48:32.157Z,93.88
2017-11-26T19:50:58.419Z,94.47
2017-11-26T19:53:24.726Z,94.35
2017-11-26T19:55:50.981Z,94.50
2017-11-26T19:58:17.265Z,94.67
2017-11-26T20:00:43.517Z,95.12
2017-11-26T20:03:09.743Z,94.72
2017-11-26T20:05:36.024Z,94.29
2017-11-26T20:08:02.310Z,94.01
2017-11-26T20:10:28.617Z,93.79
2017-11-26T20:12:54.884Z,93.29
2017-11-26T20:15:21.124Z,93.33
2017-11-26T20:17:47.427Z,93.15
2017-11-26T20:20:13.718Z,92.86
2017-11-26T20:22:39.970Z,92.94
2017-11-26T20:25:06.393Z,93.12
2017-11-26T20:27:32.681Z,93.06
2017-11-26T20:29:58.931Z,92.82
2017-11-26T20:32:25.173Z,92.38
2017-11-26T20:34:51.517Z,92.39
2017-11-26T20:37:17.788Z,92.38
2017-11-26T20:39:44.089Z,92.26
2017-11-26T20:42:10.331Z,92.23
2017-11-26T20:44:36.582Z,92.32
2017-11-26T20:47:02.861Z,92.45
2017-11-26T20:49:29.092Z,92.28
2017-11-26T20:51:55.340Z,92.16
2017-11-26T20:54:21.609Z,92.00
2017-11-26T20:56:47.857Z,92.09
2017-11-26T20:59:14.107Z,92.20
2017-11-26T21:01:40.414Z,92.22
2017-11-26T21:04:06.649Z,92.55
2017-11-26T21:06:33.091Z,92.79
2017-11-26T21:08:59.385Z,92.43
2017-11-26T21:11:25.629Z,92.09
2017-11-26T21:13:51.856Z,91.94
2017-11-26T21:16:18.127Z,91.67
2017-11-26T21:18:44.385Z,91.73
2017-11-26T21:21:10.663Z,92.01
2017-11-26T21:23:36.933Z,92.26
2017-11-26T21:26:03.164Z,92.44
2017-11-26T21:28:29.411Z,92.56
2017-11-26T21:30:55.794Z,92.47
2017-11-26T21:33:22.061Z,92.56
2017-11-26T21:35:48.293Z,92.60
2017-11-26T21:38:14.546Z,92.83
2017-11-26T21:40:40.901Z,92.74
2017-11-26T21:43:07.171Z,92.62
2017-11-26T21:45:33.434Z,92.67
2017-11-26T21:47:59.661Z,92.77
2017-11-26T21:50:25.890Z,92.89
2017-11-26T21:52:52.177Z,92.77
2017-11-26T21:55:18.408Z,93.59
2017-11-26T21:57:44.727Z,93.35
2017-11-26T22:00:11.009Z,93.10
2017-11-26T22:02:37.278Z,93.05
2017-11-26T22:05:03.538Z,93.04
2017-11-26T22:07:29.822Z,93.47
2017-11-26T22:09:56.055Z,93.36
2017-11-26T22:12:22.314Z,93.41
2017-11-26T22:14:48.601Z,93.04
2017-11-26T22:17:14.856Z,92.97
2017-11-26T22:19:41.130Z,92.95
2017-11-26T22:22:07.421Z,92.82
2017-11-26T22:24:33.682Z,92.97
2017-11-26T22:26:59.907Z,93.18
2017-11-26T22:29:26.168Z,93.44
2017-11-26T22:31:52.546Z,93.02
2017-11-26T22:34:18.790Z,93.00
2017-11-26T22:36:45.088Z,92.81
2017-11-26T22:39:11.412Z,93.08
2017-11-26T22:41:37.653Z,93.50
2017-11-26T22:44:03.946Z,93.75
2017-11-26T22:46:30.200Z,94.12
2017-11-26T22:48:56.446Z,94.63
2017-11-26T22:51:22.732Z,94.77
2017-11-26T22:53:49.003Z,94.95
2017-11-26T22:56:15.252Z,95.06
2017-11-26T22:58:41.535Z,95.25
2017-11-26T23:01:07.787Z,95.35
2017-11-26T23:03:34.088Z,95.22
2017-11-26T23:06:00.381Z,95.14
2017-11-26T23:08:26.621Z,95.04
2017-11-26T23:10:52.859Z,95.13
2017-11-26T23:13:19.161Z,95.13
2017-11-26T23:15:45.396Z,95.39
2017-11-26T23:18:11.624Z,96.16
2017-11-26T23:20:37.899Z,96.23
2017-11-26T23:23:04.160Z,96.30
2017-11-26T23:25:30.462Z,96.47
2017-11-26T23:27:56.770Z,96.22
2017-11-26T23:30:23.053Z,96.25
2017-11-26T23:32:49.296Z,96.16
2017-11-26T23:35:15.564Z,96.08
2017-11-26T23:37:41.805Z,95.80
2017-11-26T23:40:08.116Z,95.52
2017-11-26T23:42:34.429Z,95.49
2017-11-26T23:45:00.687Z,95.51
2017-11-26T23:47:26.934Z,95.33
2017-11-26T23:49:53.252Z,95.96
2017-11-26T23:52:19.502Z,96.42
2017-11-26T23:54:45.759Z,96.75
2017-11-26T23:57:12.084Z,96.71
2017-11-26T23:59:38.313Z,96.95
